Time;durP1;ratioP1;P1;durP2;ratioP2;P2;SDS_P1;SDS_P2;PMS_P1;PMS_P2;Temp;Humidity;BMP_temperature;BMP_pressure;BME280_temperature;BME280_humidity;BME280_pressure;Samples;Min_cycle;Max_cycle;Signal;HPM_P1;HPM_P2
2024/02/21 00:01:15;;;;;;;26.67;17.03;;;9.20;99.90;;;;;;5034850;28;20501;-61
2024/02/21 00:03:44;;;;;;;31.97;17.83;;;9.20;99.90;;;;;;5032651;28;20470;-61
2024/02/21 00:06:12;;;;;;;25.03;16.30;;;9.20;99.90;;;;;;5028065;28;20601;-60
2024/02/21 00:08:40;;;;;;;25.57;17.07;;;9.20;99.90;;;;;;5030717;28;20904;-61
2024/02/21 00:11:08;;;;;;;31.90;17.77;;;9.20;99.90;;;;;;5026460;28;20486;-59
2024/02/21 00:13:38;;;;;;;21.80;17.00;;;9.20;99.90;;;;;;5032114;28;20474;-59
2024/02/21 00:16:06;;;;;;;30.33;18.17;;;9.10;99.90;;;;;;5033516;28;20528;-62
2024/02/21 00:18:34;;;;;;;26.10;17.37;;;9.20;99.90;;;;;;5032586;28;20596;-62
2024/02/21 00:21:03;;;;;;;32.43;18.57;;;9.10;99.90;;;;;;5033433;28;20492;-59
2024/02/21 00:23:31;;;;;;;29.53;19.03;;;9.20;99.90;;;;;;5032199;28;20485;-60
2024/02/21 00:25:59;;;;;;;26.80;19.30;;;9.20;99.90;;;;;;5026261;28;20514;-61
2024/02/21 00:28:27;;;;;;;29.27;17.60;;;9.10;99.90;;;;;;5030177;28;20497;-59
2024/02/21 00:30:57;;;;;;;25.47;18.20;;;9.20;99.90;;;;;;5034428;28;20475;-60
2024/02/21 00:33:26;;;;;;;32.20;19.20;;;9.20;99.90;;;;;;5033383;28;20517;-60
2024/02/21 00:35:54;;;;;;;26.40;18.27;;;9.10;99.90;;;;;;5033745;28;20490;-60
2024/02/21 00:38:22;;;;;;;28.73;17.83;;;9.10;99.90;;;;;;5033012;28;20581;-61
2024/02/21 00:40:50;;;;;;;27.70;17.17;;;9.20;99.90;;;;;;5028883;28;20478;-60
2024/02/21 00:43:18;;;;;;;32.47;19.40;;;9.10;99.90;;;;;;5032938;28;20958;-60
2024/02/21 00:45:46;;;;;;;28.17;18.97;;;9.10;99.90;;;;;;5034513;28;20490;-59
2024/02/21 00:48:16;;;;;;;27.33;17.40;;;9.10;99.90;;;;;;5029888;28;20934;-60
2024/02/21 00:50:43;;;;;;;30.10;18.90;;;9.10;99.90;;;;;;5031772;28;20553;-60
2024/02/21 00:53:11;;;;;;;26.40;17.90;;;9.10;99.90;;;;;;5030262;28;20553;-61
2024/02/21 00:55:40;;;;;;;30.97;18.93;;;9.10;99.90;;;;;;5033258;28;20483;-60
2024/02/21 00:58:08;;;;;;;31.67;18.87;;;9.10;99.90;;;;;;5031737;28;20573;-63
2024/02/21 01:00:37;;;;;;;30.23;18.20;;;9.10;99.90;;;;;;5028640;28;20472;-58
2024/02/21 01:03:05;;;;;;;31.40;20.23;;;9.10;99.90;;;;;;5032851;28;20498;-60
2024/02/21 01:05:34;;;;;;;31.03;19.00;;;9.10;99.90;;;;;;5034179;28;20562;-59
2024/02/21 01:08:02;;;;;;;28.13;19.13;;;9.10;99.90;;;;;;5031818;28;20581;-60
2024/02/21 01:10:30;;;;;;;27.47;19.20;;;9.20;99.90;;;;;;5028678;28;20491;-61
2024/02/21 01:12:59;;;;;;;28.03;18.27;;;9.20;99.90;;;;;;5034877;28;20546;-60
2024/02/21 01:15:27;;;;;;;24.90;18.90;;;9.20;99.90;;;;;;5031251;28;20474;-63
2024/02/21 01:17:55;;;;;;;26.10;19.37;;;9.20;99.90;;;;;;5030668;28;20975;-60
2024/02/21 01:20:23;;;;;;;28.73;18.90;;;9.20;99.90;;;;;;5028091;28;20471;-60
2024/02/21 01:22:53;;;;;;;25.37;17.67;;;9.20;99.90;;;;;;5025370;28;20494;-58
2024/02/21 01:25:21;;;;;;;28.20;19.23;;;9.20;99.90;;;;;;5029740;28;20879;-58
2024/02/21 01:27:49;;;;;;;25.50;18.07;;;9.20;99.90;;;;;;5032970;28;20487;-58
2024/02/21 01:30:17;;;;;;;24.13;17.57;;;9.20;99.90;;;;;;5033015;28;20957;-57
2024/02/21 01:32:45;;;;;;;26.70;18.10;;;9.20;99.90;;;;;;5028789;28;20570;-57
2024/02/21 01:35:13;;;;;;;33.37;18.37;;;9.20;99.90;;;;;;5030659;28;20573;-56
2024/02/21 01:37:41;;;;;;;24.70;17.70;;;9.20;99.90;;;;;;5024238;28;20498;-57
2024/02/21 01:40:12;;;;;;;28.83;18.77;;;9.20;99.90;;;;;;5031835;28;20553;-58
2024/02/21 01:42:41;;;;;;;28.10;17.83;;;9.20;99.90;;;;;;5031621;28;20551;-58
2024/02/21 01:45:10;;;;;;;24.70;18.27;;;9.20;99.90;;;;;;5030940;28;21083;-58
2024/02/21 01:47:38;;;;;;;27.80;17.80;;;9.20;99.90;;;;;;5033695;28;20573;-58
2024/02/21 01:50:07;;;;;;;29.53;18.77;;;9.20;99.90;;;;;;5031732;28;20475;-58
2024/02/21 01:52:35;;;;;;;29.63;19.00;;;9.10;99.90;;;;;;5029000;28;20470;-58
2024/02/21 01:55:04;;;;;;;29.33;18.13;;;9.10;99.90;;;;;;5029158;28;20462;-55
2024/02/21 01:57:34;;;;;;;27.03;16.33;;;9.10;99.90;;;;;;5031971;28;21098;-58
2024/02/21 02:00:02;;;;;;;23.70;17.47;;;9.10;99.90;;;;;;5030822;28;20471;-58
2024/02/21 02:02:30;;;;;;;28.70;18.43;;;9.10;99.90;;;;;;5027952;28;20491;-58
2024/02/21 02:04:59;;;;;;;23.87;16.83;;;9.10;99.90;;;;;;5028015;28;20470;-58
2024/02/21 02:07:27;;;;;;;26.27;18.10;;;9.00;99.90;;;;;;5030454;28;20510;-57
2024/02/21 02:09:55;;;;;;;26.40;18.50;;;9.00;99.90;;;;;;5026570;28;20467;-56
2024/02/21 02:12:24;;;;;;;25.30;17.83;;;9.00;99.90;;;;;;5027786;28;20553;-56
2024/02/21 02:15:00;;;;;;;25.87;17.57;;;9.00;99.90;;;;;;5031743;28;20570;-58
2024/02/21 02:17:28;;;;;;;31.60;18.60;;;9.00;99.90;;;;;;5033385;28;20496;-57
2024/02/21 02:19:56;;;;;;;27.93;19.63;;;8.90;99.90;;;;;;5031909;28;20482;-58
2024/02/21 02:22:30;;;;;;;33.20;20.20;;;8.90;99.90;;;;;;5032539;28;20924;-58
2024/02/21 02:24:59;;;;;;;27.83;21.10;;;8.90;99.90;;;;;;5021486;28;20474;-58
2024/02/21 02:27:27;;;;;;;30.50;21.13;;;8.90;99.90;;;;;;5019655;28;20658;-58
2024/02/21 02:29:55;;;;;;;31.63;23.07;;;8.90;99.90;;;;;;5027274;28;20565;-58
2024/02/21 02:32:23;;;;;;;36.37;22.30;;;8.80;99.90;;;;;;5030201;28;20467;-58
2024/02/21 02:34:51;;;;;;;32.33;20.83;;;8.80;99.90;;;;;;5032016;28;20844;-58
2024/02/21 02:37:19;;;;;;;34.60;22.80;;;8.80;99.90;;;;;;5029714;28;20591;-58
2024/02/21 02:39:49;;;;;;;34.53;23.23;;;8.70;99.90;;;;;;5033014;28;21801;-58
2024/02/21 02:42:18;;;;;;;33.97;21.27;;;8.70;99.90;;;;;;5029980;28;21010;-58
2024/02/21 02:44:46;;;;;;;35.23;22.10;;;8.80;99.90;;;;;;5031899;28;21031;-58
2024/02/21 02:47:14;;;;;;;33.57;22.27;;;8.80;99.90;;;;;;5025209;28;21029;-58
2024/02/21 02:49:43;;;;;;;35.00;21.33;;;8.90;99.90;;;;;;5019239;28;21065;-58
2024/02/21 02:52:12;;;;;;;37.87;22.73;;;8.90;99.90;;;;;;5027221;28;20460;-58
2024/02/21 02:54:40;;;;;;;35.03;22.20;;;8.90;99.90;;;;;;5028833;28;20474;-57
2024/02/21 02:57:08;;;;;;;34.47;23.40;;;8.90;99.90;;;;;;5026813;28;20490;-58
2024/02/21 02:59:37;;;;;;;36.27;21.57;;;8.90;99.90;;;;;;5031240;28;20561;-58
2024/02/21 03:02:05;;;;;;;36.10;23.83;;;8.90;99.90;;;;;;5030887;28;20486;-56
2024/02/21 03:04:33;;;;;;;32.83;22.40;;;8.90;99.90;;;;;;5031372;28;20976;-58
2024/02/21 03:07:02;;;;;;;34.20;22.50;;;8.90;99.90;;;;;;5032707;28;21655;-57
2024/02/21 03:09:30;;;;;;;33.23;22.60;;;8.90;99.90;;;;;;5032467;28;20490;-58
2024/02/21 03:12:02;;;;;;;32.97;22.10;;;9.00;99.90;;;;;;5028751;28;20573;-57
2024/02/21 03:14:30;;;;;;;28.77;20.50;;;9.00;99.90;;;;;;5037752;28;20552;-58
2024/02/21 03:17:00;;;;;;;35.57;23.40;;;9.00;99.90;;;;;;5037048;28;20493;-58
2024/02/21 03:19:29;;;;;;;36.67;23.60;;;9.00;99.90;;;;;;5031476;28;21106;-58
2024/02/21 03:21:57;;;;;;;30.13;20.90;;;9.00;99.90;;;;;;5024594;28;21070;-58
2024/02/21 03:24:25;;;;;;;32.90;23.53;;;9.10;99.90;;;;;;5031760;28;20601;-58
2024/02/21 03:26:53;;;;;;;34.60;22.10;;;9.10;99.90;;;;;;5032080;28;21004;-58
2024/02/21 03:29:21;;;;;;;36.43;22.90;;;9.10;99.90;;;;;;5034358;28;20998;-58
2024/02/21 03:31:49;;;;;;;35.20;23.67;;;9.10;99.90;;;;;;5025441;28;20469;-58
2024/02/21 03:34:18;;;;;;;33.97;22.20;;;9.00;99.90;;;;;;5035027;28;20532;-58
2024/02/21 03:36:46;;;;;;;33.10;22.30;;;9.10;99.90;;;;;;5033904;28;20497;-58
2024/02/21 03:39:14;;;;;;;37.23;21.07;;;9.10;99.90;;;;;;5029969;28;20466;-58
2024/02/21 03:41:43;;;;;;;38.40;23.33;;;9.10;99.90;;;;;;5033938;28;21440;-58
2024/02/21 03:44:11;;;;;;;30.60;20.50;;;9.10;99.90;;;;;;5032812;28;20576;-57
2024/02/21 03:46:39;;;;;;;30.33;20.90;;;9.20;99.90;;;;;;5032692;28;20486;-58
2024/02/21 03:49:07;;;;;;;31.60;20.77;;;9.20;99.90;;;;;;5032546;28;20475;-58
2024/02/21 03:51:37;;;;;;;27.23;20.40;;;9.20;99.90;;;;;;5035605;28;20467;-58
2024/02/21 03:54:05;;;;;;;27.10;19.83;;;9.20;99.90;;;;;;5034760;28;21044;-58
2024/02/21 03:56:33;;;;;;;27.67;20.40;;;9.20;99.90;;;;;;5034175;28;20568;-58
2024/02/21 03:59:01;;;;;;;29.67;20.90;;;9.20;99.90;;;;;;5032608;28;20568;-58
2024/02/21 04:01:29;;;;;;;32.50;21.40;;;9.20;99.90;;;;;;5027018;28;20486;-58
2024/02/21 04:03:57;;;;;;;31.87;20.97;;;9.20;99.90;;;;;;5031996;28;20581;-58
2024/02/21 04:06:25;;;;;;;28.00;19.90;;;9.20;99.90;;;;;;5032649;28;20501;-57
2024/02/21 04:08:55;;;;;;;27.57;20.03;;;9.20;99.90;;;;;;5027122;28;20486;-58
2024/02/21 04:11:23;;;;;;;29.27;21.57;;;9.20;99.90;;;;;;5034482;28;21117;-58
2024/02/21 04:13:51;;;;;;;32.10;19.53;;;9.20;99.90;;;;;;5029314;28;20468;-57
2024/02/21 04:16:19;;;;;;;28.53;19.63;;;9.20;99.90;;;;;;5032613;28;20478;-57
2024/02/21 04:18:47;;;;;;;27.90;21.37;;;9.20;99.90;;;;;;5033785;28;20495;-58
2024/02/21 04:21:16;;;;;;;24.77;19.20;;;9.20;99.90;;;;;;5036092;28;20517;-58
2024/02/21 04:23:44;;;;;;;30.97;19.47;;;9.10;99.90;;;;;;5031421;28;20632;-58
2024/02/21 04:26:13;;;;;;;28.03;20.30;;;9.10;99.90;;;;;;5032514;28;20637;-58
2024/02/21 04:28:42;;;;;;;29.27;21.33;;;9.10;99.90;;;;;;5031481;28;20582;-60
2024/02/21 04:31:10;;;;;;;27.50;20.27;;;9.10;99.90;;;;;;5030740;28;20486;-58
2024/02/21 04:33:38;;;;;;;28.30;19.40;;;9.10;99.90;;;;;;5036481;28;20565;-58
2024/02/21 04:36:06;;;;;;;29.40;20.50;;;9.10;99.90;;;;;;5029057;28;20483;-58
2024/02/21 04:38:34;;;;;;;26.37;18.53;;;9.10;99.90;;;;;;5030009;28;20495;-58
2024/02/21 04:41:02;;;;;;;22.23;17.43;;;9.10;99.90;;;;;;5033383;28;20526;-57
2024/02/21 04:43:31;;;;;;;25.47;17.00;;;9.10;99.90;;;;;;5031519;28;20505;-57
2024/02/21 04:46:00;;;;;;;21.33;16.80;;;9.00;99.90;;;;;;5034441;28;20468;-58
2024/02/21 04:48:28;;;;;;;25.67;17.83;;;9.00;99.90;;;;;;5029187;28;20498;-57
2024/02/21 04:50:56;;;;;;;22.10;17.17;;;9.00;99.90;;;;;;5030133;28;21055;-57
2024/02/21 04:53:24;;;;;;;19.70;15.80;;;9.00;99.90;;;;;;5030495;28;20467;-57
2024/02/21 04:55:52;;;;;;;20.93;15.60;;;9.10;99.90;;;;;;5035575;28;20593;-57
2024/02/21 04:58:20;;;;;;;22.37;14.87;;;9.10;99.90;;;;;;5033217;28;20486;-57
2024/02/21 05:00:49;;;;;;;19.07;14.50;;;9.10;99.90;;;;;;5031248;28;20496;-57
2024/02/21 05:03:17;;;;;;;19.07;13.33;;;9.00;99.90;;;;;;5030623;28;20493;-58
2024/02/21 05:05:45;;;;;;;18.23;14.03;;;9.00;99.90;;;;;;5032085;28;20483;-58
2024/02/21 05:08:14;;;;;;;16.90;13.20;;;9.00;99.90;;;;;;5027677;28;20506;-58
2024/02/21 05:10:42;;;;;;;17.97;13.60;;;9.00;99.90;;;;;;5025662;28;20903;-58
2024/02/21 05:13:10;;;;;;;17.70;11.80;;;9.00;99.90;;;;;;5028287;28;20466;-58
2024/02/21 05:15:38;;;;;;;16.27;13.20;;;9.00;99.90;;;;;;5027808;28;20482;-57
2024/02/21 05:18:07;;;;;;;14.60;11.33;;;9.00;99.90;;;;;;5033802;28;20493;-57
2024/02/21 05:20:35;;;;;;;14.17;11.67;;;9.00;99.90;;;;;;5034647;28;20552;-58
2024/02/21 05:23:04;;;;;;;16.37;11.10;;;9.00;99.90;;;;;;5028509;28;20505;-58
2024/02/21 05:25:32;;;;;;;14.90;11.20;;;9.00;99.90;;;;;;5032937;28;20562;-57
2024/02/21 05:28:01;;;;;;;13.13;10.30;;;8.90;99.90;;;;;;5033238;28;20506;-57
2024/02/21 05:30:30;;;;;;;11.87;10.03;;;9.00;99.90;;;;;;5029778;28;20570;-57
2024/02/21 05:32:58;;;;;;;11.53;9.57;;;9.00;99.90;;;;;;5034047;28;20841;-57
2024/02/21 05:35:28;;;;;;;13.53;10.40;;;9.00;99.90;;;;;;5026179;28;20556;-56
2024/02/21 05:37:56;;;;;;;11.37;9.60;;;9.00;99.90;;;;;;5033879;28;20505;-57
2024/02/21 05:40:25;;;;;;;11.00;8.73;;;8.90;99.90;;;;;;5031381;28;20565;-57
2024/02/21 05:42:53;;;;;;;12.30;9.80;;;8.90;99.90;;;;;;5029089;28;20499;-58
2024/02/21 05:45:21;;;;;;;12.67;9.83;;;8.90;99.90;;;;;;5020971;28;20505;-58
2024/02/21 05:47:49;;;;;;;12.80;9.63;;;8.90;99.90;;;;;;5031375;28;21032;-58
2024/02/21 05:50:18;;;;;;;13.17;10.83;;;8.90;99.90;;;;;;5026064;28;20466;-57
2024/02/21 05:52:47;;;;;;;10.73;9.10;;;8.90;99.90;;;;;;5025461;28;20474;-58
2024/02/21 05:55:15;;;;;;;10.87;9.27;;;8.90;99.90;;;;;;5027493;28;20521;-56
2024/02/21 05:57:43;;;;;;;10.97;8.73;;;8.90;99.90;;;;;;5031139;28;20499;-58
2024/02/21 06:00:12;;;;;;;11.40;9.20;;;8.90;99.90;;;;;;5027782;28;20473;-58
2024/02/21 06:02:40;;;;;;;10.93;8.30;;;8.90;99.90;;;;;;5013204;28;20558;-58
2024/02/21 06:05:09;;;;;;;9.00;7.47;;;8.90;99.90;;;;;;5030069;28;20499;-57
2024/02/21 06:07:37;;;;;;;8.53;7.60;;;8.90;99.90;;;;;;5027079;28;20495;-57
2024/02/21 06:10:09;;;;;;;10.97;8.37;;;8.90;99.90;;;;;;5027003;28;20478;-57
2024/02/21 06:12:37;;;;;;;9.13;7.13;;;8.90;99.90;;;;;;5025183;28;20498;-58
2024/02/21 06:15:06;;;;;;;8.63;6.73;;;8.90;99.90;;;;;;5023232;28;20968;-58
2024/02/21 06:17:33;;;;;;;10.27;6.90;;;8.90;99.90;;;;;;5017928;28;20509;-57
2024/02/21 06:20:02;;;;;;;9.40;6.90;;;8.90;99.90;;;;;;5010198;28;20481;-58
2024/02/21 06:22:31;;;;;;;7.43;6.50;;;8.90;99.90;;;;;;5018703;28;20481;-58
2024/02/21 06:24:59;;;;;;;7.27;6.07;;;8.90;99.90;;;;;;5005022;28;21542;-58
2024/02/21 06:27:28;;;;;;;7.00;6.27;;;8.90;99.90;;;;;;4998230;28;20494;-59
2024/02/21 06:29:56;;;;;;;6.90;5.90;;;8.90;99.90;;;;;;5006144;28;20841;-60
2024/02/21 06:32:24;;;;;;;5.73;4.97;;;8.90;99.90;;;;;;4999069;28;20481;-60
2024/02/21 06:34:52;;;;;;;6.40;5.17;;;8.90;99.90;;;;;;5006211;28;20470;-58
2024/02/21 06:37:20;;;;;;;5.20;4.60;;;8.90;99.90;;;;;;4997038;28;20489;-62
2024/02/21 06:39:48;;;;;;;5.83;4.57;;;8.90;99.90;;;;;;4995489;28;20985;-59
2024/02/21 06:42:16;;;;;;;4.20;3.80;;;8.90;99.90;;;;;;5006549;28;20562;-60
2024/02/21 06:44:46;;;;;;;4.97;4.43;;;8.90;99.90;;;;;;4998056;28;20504;-61
2024/02/21 06:47:14;;;;;;;5.63;4.27;;;8.90;99.90;;;;;;5002309;28;21003;-60
2024/02/21 06:49:42;;;;;;;3.80;3.40;;;8.90;99.90;;;;;;5002039;28;20579;-60
2024/02/21 06:52:10;;;;;;;4.10;3.70;;;8.90;99.90;;;;;;5004377;28;20475;-63
2024/02/21 06:54:39;;;;;;;3.33;3.00;;;8.90;99.90;;;;;;4994774;28;20503;-60
2024/02/21 06:57:07;;;;;;;3.80;3.30;;;8.90;99.90;;;;;;5003285;28;20497;-61
2024/02/21 06:59:35;;;;;;;4.30;3.57;;;8.90;99.90;;;;;;5001333;28;21022;-61
2024/02/21 07:02:05;;;;;;;4.70;4.23;;;8.90;99.90;;;;;;4998744;28;20571;-62
2024/02/21 07:04:33;;;;;;;5.10;4.50;;;9.00;99.90;;;;;;4991422;28;20486;-63
2024/02/21 07:07:01;;;;;;;4.30;3.80;;;9.00;99.90;;;;;;4999605;28;20991;-59
2024/02/21 07:09:31;;;;;;;4.70;4.30;;;9.00;99.90;;;;;;5014212;28;20595;-61
2024/02/21 07:12:00;;;;;;;4.83;4.33;;;9.00;99.90;;;;;;5017282;28;20478;-60
2024/02/21 07:14:29;;;;;;;4.00;3.60;;;9.00;99.90;;;;;;5015055;28;20583;-60
2024/02/21 07:16:58;;;;;;;5.07;4.37;;;9.00;99.90;;;;;;5021647;28;20553;-60
2024/02/21 07:19:27;;;;;;;5.07;4.00;;;9.00;99.90;;;;;;5018033;28;20566;-61
2024/02/21 07:21:56;;;;;;;4.80;4.30;;;9.00;99.90;;;;;;5021281;28;20523;-62
2024/02/21 07:24:24;;;;;;;7.40;4.50;;;9.00;99.90;;;;;;5015437;28;20567;-60
2024/02/21 07:26:53;;;;;;;5.00;4.50;;;9.00;99.90;;;;;;5009043;28;22026;-59
2024/02/21 07:29:21;;;;;;;5.10;4.60;;;9.00;99.90;;;;;;5017856;28;20557;-62
2024/02/21 07:31:51;;;;;;;5.00;4.50;;;9.00;99.90;;;;;;5020731;28;20479;-62
2024/02/21 07:34:19;;;;;;;5.10;4.60;;;9.00;99.90;;;;;;5012403;28;20561;-60
2024/02/21 07:36:49;;;;;;;5.17;4.67;;;9.00;99.90;;;;;;5011778;28;21316;-62
2024/02/21 07:39:17;;;;;;;5.23;4.53;;;9.10;99.90;;;;;;5015386;28;20471;-60
2024/02/21 07:41:46;;;;;;;5.40;4.90;;;9.10;99.90;;;;;;5022727;28;20552;-61
2024/02/21 07:44:14;;;;;;;4.70;4.30;;;9.00;99.90;;;;;;5020345;28;20464;-60
2024/02/21 07:46:42;;;;;;;4.90;4.20;;;9.10;99.90;;;;;;5020945;28;20482;-60
2024/02/21 07:49:10;;;;;;;4.07;3.63;;;9.10;99.90;;;;;;5018325;28;20466;-61
2024/02/21 07:51:38;;;;;;;4.87;4.00;;;9.10;99.90;;;;;;5023124;28;20462;-59
2024/02/21 07:54:07;;;;;;;4.07;3.50;;;9.10;99.90;;;;;;5022087;28;21060;-59
2024/02/21 07:56:38;;;;;;;4.40;3.10;;;9.10;99.90;;;;;;5020451;28;20587;-59
2024/02/21 07:59:06;;;;;;;7.20;3.70;;;9.10;99.90;;;;;;5028363;28;20550;-60
2024/02/21 08:01:34;;;;;;;5.33;3.70;;;9.10;99.90;;;;;;5017438;28;20884;-62
2024/02/21 08:04:04;;;;;;;4.57;3.13;;;9.10;99.90;;;;;;5017467;28;20995;-60
2024/02/21 08:06:32;;;;;;;6.20;3.90;;;9.10;99.90;;;;;;5014077;28;20501;-60
2024/02/21 08:09:02;;;;;;;4.50;3.87;;;9.10;99.90;;;;;;5013540;28;20875;-60
2024/02/21 08:11:32;;;;;;;3.77;3.47;;;9.10;99.90;;;;;;5008988;28;20780;-61
2024/02/21 08:14:00;;;;;;;4.90;4.00;;;9.20;99.90;;;;;;5012266;28;20498;-61
2024/02/21 08:16:28;;;;;;;6.03;4.20;;;9.10;99.90;;;;;;5016623;28;21218;-62
2024/02/21 08:18:57;;;;;;;4.70;3.63;;;9.10;99.90;;;;;;5013749;28;20604;-59
2024/02/21 08:21:25;;;;;;;7.40;3.67;;;9.10;99.90;;;;;;5017862;28;20466;-59
2024/02/21 08:23:54;;;;;;;7.90;3.70;;;9.10;99.90;;;;;;5023225;28;20735;-61
2024/02/21 08:26:22;;;;;;;4.93;3.80;;;9.10;99.90;;;;;;5019670;28;20542;-60
2024/02/21 08:28:51;;;;;;;8.60;4.17;;;9.10;99.90;;;;;;5021715;28;20587;-59
2024/02/21 08:31:20;;;;;;;9.90;4.80;;;9.20;99.90;;;;;;5026358;28;20482;-60
2024/02/21 08:33:48;;;;;;;8.67;4.37;;;9.20;99.90;;;;;;5021386;28;20495;-60
2024/02/21 08:36:20;;;;;;;8.70;4.00;;;9.20;99.90;;;;;;5025869;28;20490;-60
2024/02/21 08:38:48;;;;;;;9.77;4.30;;;9.20;99.90;;;;;;5022510;28;20582;-57
2024/02/21 08:41:16;;;;;;;6.50;4.30;;;9.20;99.90;;;;;;5022688;28;20549;-57
2024/02/21 08:43:44;;;;;;;7.60;4.60;;;9.20;99.90;;;;;;5026598;28;20474;-57
2024/02/21 08:46:14;;;;;;;8.30;4.20;;;9.20;99.90;;;;;;5023137;28;20515;-57
2024/02/21 08:48:42;;;;;;;13.33;4.03;;;9.20;99.90;;;;;;5023501;28;20573;-56
2024/02/21 08:51:10;;;;;;;10.33;5.00;;;9.20;99.90;;;;;;5003597;28;20467;-57
2024/02/21 08:53:39;;;;;;;12.87;4.53;;;9.30;99.90;;;;;;5010271;28;20482;-57
2024/02/21 08:56:08;;;;;;;13.83;4.27;;;9.20;99.90;;;;;;5009648;28;20585;-57
2024/02/21 08:58:37;;;;;;;8.00;4.30;;;9.20;99.90;;;;;;5008811;28;20492;-57
2024/02/21 09:01:06;;;;;;;9.27;4.40;;;9.30;99.90;;;;;;5010154;28;24548;-57
2024/02/21 09:03:36;;;;;;;8.23;4.07;;;9.20;99.90;;;;;;5026854;28;20852;-57
2024/02/21 09:06:05;;;;;;;10.77;4.60;;;9.30;99.90;;;;;;5014345;28;20494;-56
2024/02/21 09:08:33;;;;;;;10.53;4.93;;;9.20;99.90;;;;;;5022353;28;20489;-57
2024/02/21 09:11:02;;;;;;;7.10;4.20;;;9.20;99.90;;;;;;5030034;28;20756;-57
2024/02/21 09:13:31;;;;;;;7.13;4.47;;;9.30;99.90;;;;;;5027205;28;20485;-56
2024/02/21 09:15:59;;;;;;;7.60;4.10;;;9.30;99.90;;;;;;5027752;28;20482;-58
2024/02/21 09:18:31;;;;;;;9.33;4.20;;;9.30;99.90;;;;;;5012471;28;20501;-57
2024/02/21 09:21:00;;;;;;;10.07;5.10;;;9.30;99.90;;;;;;5026135;28;20840;-57
2024/02/21 09:23:28;;;;;;;9.87;4.23;;;9.30;99.90;;;;;;5023808;28;21428;-58
2024/02/21 09:25:56;;;;;;;9.73;3.80;;;9.40;99.90;;;;;;5025928;28;20495;-57
2024/02/21 09:28:24;;;;;;;13.10;4.00;;;9.40;99.90;;;;;;5028286;28;21030;-57
2024/02/21 09:30:52;;;;;;;7.40;3.90;;;9.40;99.90;;;;;;5031057;28;20553;-58
2024/02/21 09:33:20;;;;;;;8.47;4.00;;;9.30;99.90;;;;;;5017885;28;20497;-56
2024/02/21 09:36:00;;;;;;;5.77;3.87;;;9.30;99.90;;;;;;5018261;28;20474;-57
2024/02/21 09:38:28;;;;;;;9.77;4.30;;;9.30;99.90;;;;;;5025988;28;20504;-58
2024/02/21 09:41:01;;;;;;;7.87;3.90;;;9.30;99.90;;;;;;5020765;28;20850;-59
2024/02/21 09:43:30;;;;;;;7.53;4.27;;;9.30;99.90;;;;;;5019967;28;20557;-59
2024/02/21 09:46:00;;;;;;;8.50;3.63;;;9.30;99.90;;;;;;5020089;28;20515;-59
2024/02/21 09:48:42;;;;;;;6.40;3.60;;;9.30;99.90;;;;;;5024896;28;21085;-57
2024/02/21 09:51:12;;;;;;;4.97;3.43;;;9.30;99.90;;;;;;5026739;28;20465;-57
2024/02/21 09:53:42;;;;;;;4.73;3.30;;;9.30;99.90;;;;;;5025252;28;20479;-56
2024/02/21 09:56:25;;;;;;;5.00;3.40;;;9.30;99.90;;;;;;5016961;28;20490;-57
2024/02/21 09:58:53;;;;;;;7.03;3.70;;;9.30;99.90;;;;;;5024321;28;20490;-58
2024/02/21 10:01:21;;;;;;;3.77;3.37;;;9.30;99.90;;;;;;5025490;28;20838;-57
2024/02/21 10:04:02;;;;;;;8.00;3.97;;;9.30;99.90;;;;;;5028152;28;20462;-57
2024/02/21 10:06:33;;;;;;;6.23;3.80;;;9.30;99.90;;;;;;5028519;28;21014;-57
2024/02/21 10:09:01;;;;;;;5.83;3.23;;;9.30;99.90;;;;;;5023042;28;20867;-56
2024/02/21 10:11:30;;;;;;;3.20;2.77;;;9.30;99.90;;;;;;5020792;28;20475;-56
2024/02/21 10:14:05;;;;;;;4.73;3.50;;;9.30;99.90;;;;;;5029172;28;20473;-57
2024/02/21 10:16:34;;;;;;;5.53;3.67;;;9.30;99.90;;;;;;5025174;28;20832;-58
2024/02/21 10:19:03;;;;;;;5.40;3.97;;;9.30;99.90;;;;;;5028459;28;20513;-58
2024/02/21 10:21:33;;;;;;;4.63;3.60;;;9.20;99.90;;;;;;5022796;28;20466;-58
2024/02/21 10:24:01;;;;;;;5.67;4.47;;;9.30;99.90;;;;;;5025230;28;20463;-56
2024/02/21 10:26:29;;;;;;;5.20;4.70;;;9.20;99.90;;;;;;5021131;28;20510;-58
2024/02/21 10:28:57;;;;;;;6.13;5.13;;;9.30;99.90;;;;;;5027214;28;20487;-58
2024/02/21 10:31:27;;;;;;;6.43;5.73;;;9.30;99.90;;;;;;5018622;28;20463;-56
2024/02/21 10:33:57;;;;;;;7.47;6.10;;;9.30;99.90;;;;;;5028246;28;20555;-57
2024/02/21 10:36:25;;;;;;;8.93;7.20;;;9.30;99.90;;;;;;5021156;28;21062;-57
2024/02/21 10:38:55;;;;;;;9.17;7.87;;;9.20;99.90;;;;;;5025581;28;20490;-58
2024/02/21 10:41:24;;;;;;;13.87;9.90;;;9.30;99.90;;;;;;5020417;28;20482;-57
2024/02/21 10:43:54;;;;;;;11.10;9.37;;;9.30;99.90;;;;;;5032165;28;20462;-58
2024/02/21 10:46:24;;;;;;;15.77;11.60;;;9.30;99.90;;;;;;5015715;28;20621;-56
2024/02/21 10:49:03;;;;;;;17.87;13.33;;;9.30;99.90;;;;;;5026147;28;20491;-58
2024/02/21 10:51:35;;;;;;;17.87;13.73;;;9.30;99.90;;;;;;5022168;28;21266;-56
2024/02/21 10:54:17;;;;;;;20.40;14.30;;;9.30;99.90;;;;;;5029717;28;20487;-57
2024/02/21 10:56:46;;;;;;;19.37;14.47;;;9.30;99.90;;;;;;5018446;28;20521;-57
2024/02/21 10:59:15;;;;;;;20.30;14.73;;;9.30;99.90;;;;;;5025640;28;20477;-58
2024/02/21 11:01:43;;;;;;;20.67;14.93;;;9.40;99.90;;;;;;5025848;28;20496;-58
2024/02/21 11:04:12;;;;;;;21.37;15.20;;;9.30;99.90;;;;;;5016770;28;20503;-56
2024/02/21 11:06:42;;;;;;;20.70;15.80;;;9.30;99.90;;;;;;5022044;28;20494;-57
2024/02/21 11:09:12;;;;;;;24.17;16.57;;;9.40;99.90;;;;;;5030624;28;20474;-57
2024/02/21 11:11:41;;;;;;;21.00;15.60;;;9.40;99.90;;;;;;5024472;28;21094;-58
2024/02/21 11:14:11;;;;;;;20.70;15.13;;;9.40;99.90;;;;;;5027042;28;20487;-67
2024/02/21 11:16:40;;;;;;;21.40;14.77;;;9.40;99.90;;;;;;5030483;28;20987;-62
2024/02/21 11:19:10;;;;;;;21.63;15.63;;;9.40;99.90;;;;;;5026174;28;20521;-62
2024/02/21 11:21:41;;;;;;;21.70;16.10;;;9.40;99.90;;;;;;5026366;28;20536;-58
2024/02/21 11:24:11;;;;;;;20.77;14.80;;;9.40;99.90;;;;;;5026449;28;21786;-58
2024/02/21 11:26:39;;;;;;;20.50;15.03;;;9.40;99.90;;;;;;5030541;28;20486;-58
2024/02/21 11:29:09;;;;;;;21.13;14.73;;;9.40;99.90;;;;;;5032034;28;20572;-58
2024/02/21 11:31:41;;;;;;;19.07;14.40;;;9.40;99.90;;;;;;5030765;28;20575;-57
2024/02/21 11:34:11;;;;;;;21.83;14.00;;;9.40;99.90;;;;;;5028755;28;21294;-56
2024/02/21 11:36:49;;;;;;;17.40;13.80;;;9.50;99.90;;;;;;5027319;28;20478;-56
2024/02/21 11:39:25;;;;;;;18.70;13.63;;;9.40;99.90;;;;;;5024686;28;20867;-58
2024/02/21 11:42:04;;;;;;;17.47;12.90;;;9.40;99.90;;;;;;5022092;28;21670;-58
2024/02/21 11:44:32;;;;;;;17.73;12.90;;;9.40;99.90;;;;;;5023482;28;20574;-56
2024/02/21 11:47:01;;;;;;;16.80;12.63;;;9.40;99.90;;;;;;5031477;28;21040;-57
2024/02/21 11:49:31;;;;;;;15.23;11.30;;;9.40;99.90;;;;;;5027941;28;20478;-58
2024/02/21 11:52:01;;;;;;;17.40;12.87;;;9.40;99.90;;;;;;5025100;28;20493;-58
2024/02/21 11:54:30;;;;;;;18.87;12.63;;;9.30;99.90;;;;;;5015940;28;20474;-58
2024/02/21 11:56:58;;;;;;;15.23;11.60;;;9.40;99.90;;;;;;5023374;28;20486;-58
2024/02/21 11:59:26;;;;;;;14.57;11.03;;;9.40;99.90;;;;;;5028391;28;20550;-57
2024/02/21 12:01:54;;;;;;;15.60;10.67;;;9.40;99.90;;;;;;5024296;28;20559;-57
2024/02/21 12:04:24;;;;;;;15.23;10.83;;;9.40;99.90;;;;;;5023056;28;20549;-56
2024/02/21 12:06:53;;;;;;;15.63;10.83;;;9.40;99.90;;;;;;5027946;28;22035;-56
2024/02/21 12:09:24;;;;;;;13.03;10.60;;;9.40;99.90;;;;;;5026676;28;20470;-58
2024/02/21 12:12:00;;;;;;;13.93;9.80;;;9.40;99.90;;;;;;5021763;28;20600;-57
2024/02/21 12:14:30;;;;;;;12.40;9.77;;;9.40;99.90;;;;;;5026504;28;22981;-57
2024/02/21 12:16:58;;;;;;;12.40;9.90;;;9.40;99.90;;;;;;5022025;28;20585;-57
2024/02/21 12:19:26;;;;;;;11.90;9.83;;;9.30;99.90;;;;;;5029705;28;20471;-57
2024/02/21 12:21:57;;;;;;;14.33;10.93;;;9.40;99.90;;;;;;5030452;28;20474;-57
2024/02/21 12:24:26;;;;;;;13.57;9.60;;;9.30;99.90;;;;;;5023867;28;20510;-57
2024/02/21 12:26:55;;;;;;;13.20;11.27;;;9.30;99.90;;;;;;5015730;28;20639;-57
2024/02/21 12:29:25;;;;;;;13.90;9.83;;;9.30;99.90;;;;;;5015118;28;21084;-57
2024/02/21 12:31:54;;;;;;;13.17;10.30;;;9.40;99.90;;;;;;5019392;28;20993;-58
2024/02/21 12:34:24;;;;;;;12.57;9.80;;;9.30;99.90;;;;;;5028144;28;20467;-57
2024/02/21 12:37:05;;;;;;;13.17;10.17;;;9.30;99.90;;;;;;5027252;28;20486;-58
2024/02/21 12:39:34;;;;;;;12.60;10.03;;;9.30;99.90;;;;;;5029318;28;20613;-58
2024/02/21 12:42:02;;;;;;;14.40;10.83;;;9.30;99.90;;;;;;5026379;28;20552;-58
2024/02/21 12:44:31;;;;;;;14.50;10.03;;;9.30;99.90;;;;;;5020760;28;20478;-57
2024/02/21 12:47:00;;;;;;;16.37;11.20;;;9.30;99.90;;;;;;5027319;28;20534;-57
2024/02/21 12:49:29;;;;;;;17.10;10.27;;;9.30;99.90;;;;;;5026776;28;20481;-58
2024/02/21 12:51:57;;;;;;;14.10;10.10;;;9.30;99.90;;;;;;5024016;28;20571;-56